sensor_id;sensor_type;location;lat;lon;timestamp;pressure;altitude;pressure_sealevel;temperature;humidity
12146;BME280;6136;47.032;15.398;2023-03-03T00:01:28;97670.91;;;5.41;100.00
12146;BME280;6136;47.032;15.398;2023-03-03T00:03:58;97669.28;;;5.38;100.00
12146;BME280;6136;47.032;15.398;2023-03-03T00:06:26;97668.41;;;5.38;100.00
12146;BME280;6136;47.032;15.398;2023-03-03T00:08:56;97663.16;;;5.38;100.00
12146;BME280;6136;47.032;15.398;2023-03-03T00:11:24;97670.25;;;5.36;100.00
12146;BME280;6136;47.032;15.398;2023-03-03T00:13:55;97662.56;;;5.31;100.00
12146;BME280;6136;47.032;15.398;2023-03-03T00:16:26;97664.44;;;5.28;100.00
12146;BME280;6136;47.032;15.398;2023-03-03T00:18:55;97655.84;;;5.24;100.00
12146;BME280;6136;47.032;15.398;2023-03-03T00:21:27;97660.22;;;5.24;100.00
12146;BME280;6136;47.032;15.398;2023-03-03T00:24:10;97663.66;;;5.26;100.00
12146;BME280;6136;47.032;15.398;2023-03-03T00:26:40;97664.44;;;5.28;100.00
12146;BME280;6136;47.032;15.398;2023-03-03T00:29:31;97665.34;;;5.27;100.00
12146;BME280;6136;47.032;15.398;2023-03-03T00:32:22;97654.06;;;5.25;100.00
12146;BME280;6136;47.032;15.398;2023-03-03T00:34:52;97651.44;;;5.25;100.00
12146;BME280;6136;47.032;15.398;2023-03-03T00:37:26;97653.31;;;5.21;100.00
12146;BME280;6136;47.032;15.398;2023-03-03T00:40:19;97654.41;;;5.16;100.00
12146;BME280;6136;47.032;15.398;2023-03-03T00:42:51;97648.59;;;5.07;100.00
12146;BME280;6136;47.032;15.398;2023-03-03T00:45:26;97648.00;;;5.01;100.00
12146;BME280;6136;47.032;15.398;2023-03-03T00:47:55;97650.56;;;5.02;100.00
12146;BME280;6136;47.032;15.398;2023-03-03T00:50:29;97653.84;;;5.07;100.00
12146;BME280;6136;47.032;15.398;2023-03-03T00:53:05;97645.69;;;5.15;100.00
12146;BME280;6136;47.032;15.398;2023-03-03T00:55:33;97650.88;;;5.17;100.00
12146;BME280;6136;47.032;15.398;2023-03-03T00:58:03;97638.16;;;5.06;100.00
12146;BME280;6136;47.032;15.398;2023-03-03T01:00:36;97633.16;;;5.00;100.00
12146;BME280;6136;47.032;15.398;2023-03-03T01:03:09;97635.59;;;5.04;100.00
12146;BME280;6136;47.032;15.398;2023-03-03T01:05:39;97630.88;;;5.13;100.00
12146;BME280;6136;47.032;15.398;2023-03-03T01:08:09;97622.00;;;5.17;100.00
12146;BME280;6136;47.032;15.398;2023-03-03T01:10:41;97621.19;;;5.15;100.00
12146;BME280;6136;47.032;15.398;2023-03-03T01:13:10;97613.50;;;5.10;100.00
12146;BME280;6136;47.032;15.398;2023-03-03T01:15:39;97622.22;;;5.11;100.00
12146;BME280;6136;47.032;15.398;2023-03-03T01:18:08;97623.25;;;5.06;100.00
12146;BME280;6136;47.032;15.398;2023-03-03T01:20:37;97611.84;;;5.07;100.00
12146;BME280;6136;47.032;15.398;2023-03-03T01:23:06;97611.09;;;5.04;100.00
12146;BME280;6136;47.032;15.398;2023-03-03T01:25:35;97604.31;;;4.98;100.00
12146;BME280;6136;47.032;15.398;2023-03-03T01:28:04;97610.25;;;5.03;100.00
12146;BME280;6136;47.032;15.398;2023-03-03T01:30:33;97601.94;;;4.92;100.00
12146;BME280;6136;47.032;15.398;2023-03-03T01:33:01;97615.47;;;4.82;100.00
12146;BME280;6136;47.032;15.398;2023-03-03T01:35:29;97606.88;;;4.78;100.00
12146;BME280;6136;47.032;15.398;2023-03-03T01:37:58;97596.19;;;4.83;100.00
12146;BME280;6136;47.032;15.398;2023-03-03T01:40:29;97599.38;;;4.91;100.00
12146;BME280;6136;47.032;15.398;2023-03-03T01:42:59;97602.03;;;4.89;100.00
12146;BME280;6136;47.032;15.398;2023-03-03T01:45:29;97605.38;;;4.94;100.00
12146;BME280;6136;47.032;15.398;2023-03-03T01:48:00;97603.75;;;4.90;100.00
12146;BME280;6136;47.032;15.398;2023-03-03T01:50:36;97604.38;;;4.97;100.00
12146;BME280;6136;47.032;15.398;2023-03-03T01:53:11;97598.34;;;4.95;100.00
12146;BME280;6136;47.032;15.398;2023-03-03T01:55:41;97599.19;;;4.95;100.00
12146;BME280;6136;47.032;15.398;2023-03-03T01:58:15;97603.59;;;4.95;100.00
12146;BME280;6136;47.032;15.398;2023-03-03T02:00:45;97594.25;;;4.88;100.00
12146;BME280;6136;47.032;15.398;2023-03-03T02:03:17;97599.09;;;4.75;100.00
12146;BME280;6136;47.032;15.398;2023-03-03T02:05:48;97595.75;;;4.72;100.00
12146;BME280;6136;47.032;15.398;2023-03-03T02:08:20;97592.16;;;4.74;100.00
12146;BME280;6136;47.032;15.398;2023-03-03T02:10:49;97593.19;;;4.70;100.00
12146;BME280;6136;47.032;15.398;2023-03-03T02:13:19;97591.47;;;4.69;100.00
12146;BME280;6136;47.032;15.398;2023-03-03T02:15:48;97592.38;;;4.68;100.00
12146;BME280;6136;47.032;15.398;2023-03-03T02:18:19;97583.13;;;4.81;100.00
12146;BME280;6136;47.032;15.398;2023-03-03T02:20:53;97587.22;;;4.88;100.00
12146;BME280;6136;47.032;15.398;2023-03-03T02:23:29;97588.53;;;4.77;100.00
12146;BME280;6136;47.032;15.398;2023-03-03T02:26:05;97586.22;;;4.69;100.00
12146;BME280;6136;47.032;15.398;2023-03-03T02:28:35;97575.78;;;4.67;100.00
12146;BME280;6136;47.032;15.398;2023-03-03T02:31:08;97574.81;;;4.70;100.00
12146;BME280;6136;47.032;15.398;2023-03-03T02:33:40;97584.50;;;4.68;100.00
12146;BME280;6136;47.032;15.398;2023-03-03T02:36:11;97568.09;;;4.63;100.00
12146;BME280;6136;47.032;15.398;2023-03-03T02:38:45;97569.66;;;4.67;100.00
12146;BME280;6136;47.032;15.398;2023-03-03T02:41:26;97576.47;;;4.73;100.00
12146;BME280;6136;47.032;15.398;2023-03-03T02:43:59;97570.75;;;4.61;100.00
12146;BME280;6136;47.032;15.398;2023-03-03T02:46:32;97569.66;;;4.67;100.00
12146;BME280;6136;47.032;15.398;2023-03-03T02:49:01;97566.59;;;4.79;100.00
12146;BME280;6136;47.032;15.398;2023-03-03T02:51:30;97572.63;;;4.81;100.00
12146;BME280;6136;47.032;15.398;2023-03-03T02:53:58;97562.91;;;4.83;100.00
12146;BME280;6136;47.032;15.398;2023-03-03T02:56:30;97561.13;;;4.84;100.00
12146;BME280;6136;47.032;15.398;2023-03-03T02:58:58;97556.59;;;4.89;100.00
12146;BME280;6136;47.032;15.398;2023-03-03T03:01:30;97563.72;;;4.85;100.00
12146;BME280;6136;47.032;15.398;2023-03-03T03:04:06;97564.81;;;4.80;100.00
12146;BME280;6136;47.032;15.398;2023-03-03T03:06:37;97554.41;;;4.77;100.00
12146;BME280;6136;47.032;15.398;2023-03-03T03:09:07;97558.72;;;4.79;100.00
12146;BME280;6136;47.032;15.398;2023-03-03T03:11:37;97556.19;;;4.76;100.00
12146;BME280;6136;47.032;15.398;2023-03-03T03:14:08;97549.03;;;4.58;100.00
12146;BME280;6136;47.032;15.398;2023-03-03T03:16:38;97546.22;;;4.62;100.00
12146;BME280;6136;47.032;15.398;2023-03-03T03:19:07;97543.81;;;4.58;100.00
12146;BME280;6136;47.032;15.398;2023-03-03T03:21:36;97539.75;;;4.49;100.00
12146;BME280;6136;47.032;15.398;2023-03-03T03:24:06;97544.63;;;4.37;100.00
12146;BME280;6136;47.032;15.398;2023-03-03T03:26:38;97541.75;;;4.43;100.00
12146;BME280;6136;47.032;15.398;2023-03-03T03:29:06;97541.34;;;4.53;100.00
12146;BME280;6136;47.032;15.398;2023-03-03T03:31:34;97534.47;;;4.51;100.00
12146;BME280;6136;47.032;15.398;2023-03-03T03:34:03;97536.94;;;4.54;100.00
12146;BME280;6136;47.032;15.398;2023-03-03T03:36:32;97536.09;;;4.53;100.00
12146;BME280;6136;47.032;15.398;2023-03-03T03:39:00;97538.16;;;4.45;100.00
12146;BME280;6136;47.032;15.398;2023-03-03T03:41:35;97536.56;;;4.41;100.00
12146;BME280;6136;47.032;15.398;2023-03-03T03:44:04;97526.66;;;4.26;100.00
12146;BME280;6136;47.032;15.398;2023-03-03T03:46:33;97537.53;;;4.39;100.00
12146;BME280;6136;47.032;15.398;2023-03-03T03:49:01;97532.66;;;4.29;100.00
12146;BME280;6136;47.032;15.398;2023-03-03T03:51:29;97535.38;;;4.26;100.00
12146;BME280;6136;47.032;15.398;2023-03-03T03:53:58;97530.31;;;4.22;100.00
12146;BME280;6136;47.032;15.398;2023-03-03T03:56:26;97533.16;;;4.16;100.00
12146;BME280;6136;47.032;15.398;2023-03-03T03:58:57;97535.03;;;4.12;100.00
12146;BME280;6136;47.032;15.398;2023-03-03T04:01:28;97528.19;;;4.08;100.00
12146;BME280;6136;47.032;15.398;2023-03-03T04:03:56;97533.44;;;4.08;100.00
12146;BME280;6136;47.032;15.398;2023-03-03T04:06:25;97525.75;;;4.04;100.00
12146;BME280;6136;47.032;15.398;2023-03-03T04:08:54;97526.25;;;3.90;100.00
12146;BME280;6136;47.032;15.398;2023-03-03T04:11:22;97523.22;;;3.77;100.00
12146;BME280;6136;47.032;15.398;2023-03-03T04:13:51;97528.88;;;3.65;100.00
12146;BME280;6136;47.032;15.398;2023-03-03T04:16:19;97537.03;;;3.58;100.00
12146;BME280;6136;47.032;15.398;2023-03-03T04:18:49;97526.31;;;3.64;100.00
12146;BME280;6136;47.032;15.398;2023-03-03T04:21:19;97526.31;;;3.64;100.00
12146;BME280;6136;47.032;15.398;2023-03-03T04:23:48;97524.38;;;3.70;100.00
12146;BME280;6136;47.032;15.398;2023-03-03T04:26:16;97523.78;;;3.62;100.00
12146;BME280;6136;47.032;15.398;2023-03-03T04:28:46;97529.97;;;3.60;100.00
12146;BME280;6136;47.032;15.398;2023-03-03T04:31:14;97527.41;;;3.58;100.00
12146;BME280;6136;47.032;15.398;2023-03-03T04:33:42;97533.44;;;3.60;100.00
12146;BME280;6136;47.032;15.398;2023-03-03T04:36:12;97531.56;;;3.64;100.00
12146;BME280;6136;47.032;15.398;2023-03-03T04:38:40;97535.91;;;3.65;100.00
12146;BME280;6136;47.032;15.398;2023-03-03T04:41:08;97528.03;;;3.65;100.00
12146;BME280;6136;47.032;15.398;2023-03-03T04:43:38;97532.50;;;3.63;100.00
12146;BME280;6136;47.032;15.398;2023-03-03T04:46:07;97529.13;;;3.59;100.00
12146;BME280;6136;47.032;15.398;2023-03-03T04:48:36;97526.97;;;3.45;100.00
12146;BME280;6136;47.032;15.398;2023-03-03T04:51:05;97534.66;;;3.50;100.00
12146;BME280;6136;47.032;15.398;2023-03-03T04:53:36;97533.03;;;3.47;100.00
12146;BME280;6136;47.032;15.398;2023-03-03T04:56:07;97544.63;;;3.40;100.00
12146;BME280;6136;47.032;15.398;2023-03-03T04:58:35;97543.00;;;3.36;100.00
12146;BME280;6136;47.032;15.398;2023-03-03T05:01:04;97540.59;;;3.30;100.00
12146;BME280;6136;47.032;15.398;2023-03-03T05:03:33;97540.00;;;3.22;100.00
12146;BME280;6136;47.032;15.398;2023-03-03T05:06:01;97535.53;;;3.26;100.00
12146;BME280;6136;47.032;15.398;2023-03-03T05:08:29;97539.47;;;3.37;100.00
12146;BME280;6136;47.032;15.398;2023-03-03T05:10:59;97539.56;;;3.34;100.00
12146;BME280;6136;47.032;15.398;2023-03-03T05:13:28;97543.22;;;3.30;100.00
12146;BME280;6136;47.032;15.398;2023-03-03T05:15:57;97552.63;;;3.36;100.00
12146;BME280;6136;47.032;15.398;2023-03-03T05:18:26;97546.31;;;3.41;100.00
12146;BME280;6136;47.032;15.398;2023-03-03T05:20:54;97545.28;;;3.47;100.00
12146;BME280;6136;47.032;15.398;2023-03-03T05:23:22;97549.34;;;3.56;100.00
12146;BME280;6136;47.032;15.398;2023-03-03T05:25:50;97551.41;;;3.71;100.00
12146;BME280;6136;47.032;15.398;2023-03-03T05:28:20;97552.22;;;3.73;100.00
12146;BME280;6136;47.032;15.398;2023-03-03T05:30:48;97547.19;;;3.67;100.00
12146;BME280;6136;47.032;15.398;2023-03-03T05:33:16;97555.72;;;3.72;100.00
12146;BME280;6136;47.032;15.398;2023-03-03T05:35:45;97551.97;;;3.79;100.00
12146;BME280;6136;47.032;15.398;2023-03-03T05:38:13;97551.03;;;3.81;100.00
12146;BME280;6136;47.032;15.398;2023-03-03T05:40:41;97557.34;;;3.76;100.00
12146;BME280;6136;47.032;15.398;2023-03-03T05:43:09;97562.16;;;3.88;100.00
12146;BME280;6136;47.032;15.398;2023-03-03T05:45:39;97567.16;;;3.94;100.00
12146;BME280;6136;47.032;15.398;2023-03-03T05:48:07;97560.00;;;3.99;100.00
12146;BME280;6136;47.032;15.398;2023-03-03T05:50:37;97562.41;;;4.05;100.00
12146;BME280;6136;47.032;15.398;2023-03-03T05:53:06;97570.31;;;4.04;100.00
12146;BME280;6136;47.032;15.398;2023-03-03T05:55:34;97573.75;;;4.06;100.00
12146;BME280;6136;47.032;15.398;2023-03-03T05:58:02;97575.19;;;4.14;100.00
12146;BME280;6136;47.032;15.398;2023-03-03T06:00:30;97572.56;;;4.14;100.00
12146;BME280;6136;47.032;15.398;2023-03-03T06:03:00;97581.06;;;4.21;100.00
12146;BME280;6136;47.032;15.398;2023-03-03T06:05:28;97578.59;;;4.16;100.00
12146;BME280;6136;47.032;15.398;2023-03-03T06:07:56;97574.66;;;4.05;100.00
12146;BME280;6136;47.032;15.398;2023-03-03T06:10:25;97573.22;;;3.96;100.00
12146;BME280;6136;47.032;15.398;2023-03-03T06:12:57;97572.41;;;3.94;100.00
12146;BME280;6136;47.032;15.398;2023-03-03T06:15:25;97579.28;;;3.98;100.00
12146;BME280;6136;47.032;15.398;2023-03-03T06:17:53;97575.97;;;4.16;100.00
12146;BME280;6136;47.032;15.398;2023-03-03T06:20:23;97583.50;;;4.25;100.00
12146;BME280;6136;47.032;15.398;2023-03-03T06:22:51;97584.94;;;4.34;100.00
12146;BME280;6136;47.032;15.398;2023-03-03T06:25:19;97589.09;;;4.40;100.00
12146;BME280;6136;47.032;15.398;2023-03-03T06:27:47;97590.13;;;4.36;100.00
12146;BME280;6136;47.032;15.398;2023-03-03T06:30:16;97597.78;;;4.42;100.00
12146;BME280;6136;47.032;15.398;2023-03-03T06:32:44;97599.47;;;4.43;100.00
12146;BME280;6136;47.032;15.398;2023-03-03T06:35:12;97598.56;;;4.44;100.00
12146;BME280;6136;47.032;15.398;2023-03-03T06:37:42;97597.47;;;4.49;100.00
12146;BME280;6136;47.032;15.398;2023-03-03T06:40:12;97605.41;;;4.48;100.00
12146;BME280;6136;47.032;15.398;2023-03-03T06:42:40;97617.28;;;4.58;100.00
12146;BME280;6136;47.032;15.398;2023-03-03T06:45:09;97623.03;;;4.44;100.00
12146;BME280;6136;47.032;15.398;2023-03-03T06:47:37;97617.63;;;4.49;100.00
12146;BME280;6136;47.032;15.398;2023-03-03T06:50:06;97617.63;;;4.49;100.00
12146;BME280;6136;47.032;15.398;2023-03-03T06:52:34;97623.44;;;4.57;100.00
12146;BME280;6136;47.032;15.398;2023-03-03T06:55:11;97617.75;;;4.67;100.00
12146;BME280;6136;47.032;15.398;2023-03-03T06:57:40;97625.91;;;4.83;100.00
12146;BME280;6136;47.032;15.398;2023-03-03T07:00:15;97627.28;;;4.93;100.00
12146;BME280;6136;47.032;15.398;2023-03-03T07:02:44;97637.59;;;4.98;100.00
12146;BME280;6136;47.032;15.398;2023-03-03T07:05:15;97638.28;;;5.03;100.00
12146;BME280;6136;47.032;15.398;2023-03-03T07:07:43;97641.88;;;5.00;100.00
12146;BME280;6136;47.032;15.398;2023-03-03T07:10:19;97639.66;;;4.90;100.00
12146;BME280;6136;47.032;15.398;2023-03-03T07:12:48;97652.16;;;4.83;100.00
12146;BME280;6136;47.032;15.398;2023-03-03T07:15:20;97646.75;;;4.88;100.00
12146;BME280;6136;47.032;15.398;2023-03-03T07:17:54;97657.31;;;4.86;100.00
12146;BME280;6136;47.032;15.398;2023-03-03T07:20:28;97663.72;;;4.79;100.00
12146;BME280;6136;47.032;15.398;2023-03-03T07:22:57;97667.69;;;4.89;100.00
12146;BME280;6136;47.032;15.398;2023-03-03T07:25:30;97667.63;;;4.91;100.00
12146;BME280;6136;47.032;15.398;2023-03-03T07:27:59;97674.97;;;5.04;100.00
12146;BME280;6136;47.032;15.398;2023-03-03T07:30:39;97665.13;;;5.11;100.00
12146;BME280;6136;47.032;15.398;2023-03-03T07:33:18;97672.28;;;5.06;100.00
12146;BME280;6136;47.032;15.398;2023-03-03T07:35:51;97667.22;;;5.01;100.00
12146;BME280;6136;47.032;15.398;2023-03-03T07:38:24;97670.53;;;5.06;100.00
12146;BME280;6136;47.032;15.398;2023-03-03T07:40:59;97659.63;;;5.17;100.00
12146;BME280;6136;47.032;15.398;2023-03-03T07:43:39;97667.19;;;5.25;100.00
12146;BME280;6136;47.032;15.398;2023-03-03T07:46:21;97664.56;;;5.25;100.00
12146;BME280;6136;47.032;15.398;2023-03-03T07:48:51;97660.59;;;5.36;100.00
12146;BME280;6136;47.032;15.398;2023-03-03T07:51:22;97654.97;;;5.45;100.00
12146;BME280;6136;47.032;15.398;2023-03-03T07:53:56;97657.31;;;5.73;100.00
12146;BME280;6136;47.032;15.398;2023-03-03T07:56:33;97662.47;;;5.76;100.00
12146;BME280;6136;47.032;15.398;2023-03-03T07:59:10;97667.50;;;5.81;100.00
12146;BME280;6136;47.032;15.398;2023-03-03T08:01:43;97654.50;;;6.20;100.00
12146;BME280;6136;47.032;15.398;2023-03-03T08:04:17;97654.81;;;6.33;100.00
12146;BME280;6136;47.032;15.398;2023-03-03T08:06:51;97649.06;;;6.43;100.00
12146;BME280;6136;47.032;15.398;2023-03-03T08:09:28;97648.47;;;6.57;100.00
12146;BME280;6136;47.032;15.398;2023-03-03T08:12:04;97659.56;;;6.63;100.00
12146;BME280;6136;47.032;15.398;2023-03-03T08:14:40;97661.69;;;6.55;100.00
12146;BME280;6136;47.032;15.398;2023-03-03T08:17:13;97659.56;;;6.63;100.00
12146;BME280;6136;47.032;15.398;2023-03-03T08:19:44;97653.50;;;6.61;100.00
12146;BME280;6136;47.032;15.398;2023-03-03T08:22:15;97659.50;;;6.84;100.00
12146;BME280;6136;47.032;15.398;2023-03-03T08:24:44;97662.28;;;6.81;100.00
12146;BME280;6136;47.032;15.398;2023-03-03T08:27:14;97669.53;;;6.76;100.00
12146;BME280;6136;47.032;15.398;2023-03-03T08:29:42;97667.63;;;6.79;100.00
12146;BME280;6136;47.032;15.398;2023-03-03T08:32:12;97664.06;;;6.99;100.00
12146;BME280;6136;47.032;15.398;2023-03-03T08:34:40;97670.44;;;7.50;100.00
12146;BME280;6136;47.032;15.398;2023-03-03T08:37:08;97664.22;;;8.38;100.00
12146;BME280;6136;47.032;15.398;2023-03-03T08:39:37;97672.84;;;8.59;100.00
12146;BME280;6136;47.032;15.398;2023-03-03T08:42:05;97667.72;;;8.89;100.00
12146;BME280;6136;47.032;15.398;2023-03-03T08:44:35;97682.16;;;9.30;100.00
12146;BME280;6136;47.032;15.398;2023-03-03T08:47:03;97683.69;;;9.19;100.00
12146;BME280;6136;47.032;15.398;2023-03-03T08:49:31;97681.56;;;8.77;100.00
12146;BME280;6136;47.032;15.398;2023-03-03T08:51:59;97688.06;;;8.54;100.00
12146;BME280;6136;47.032;15.398;2023-03-03T08:54:27;97679.22;;;8.38;100.00
12146;BME280;6136;47.032;15.398;2023-03-03T08:56:56;97684.63;;;8.17;100.00
12146;BME280;6136;47.032;15.398;2023-03-03T08:59:24;97689.97;;;8.35;100.00
12146;BME280;6136;47.032;15.398;2023-03-03T09:01:54;97679.06;;;8.41;100.00
12146;BME280;6136;47.032;15.398;2023-03-03T09:04:22;97687.72;;;8.77;100.00
12146;BME280;6136;47.032;15.398;2023-03-03T09:06:50;97684.59;;;8.86;100.00
12146;BME280;6136;47.032;15.398;2023-03-03T09:09:18;97682.84;;;9.34;100.00
12146;BME280;6136;47.032;15.398;2023-03-03T09:11:46;97688.03;;;9.67;99.59
12146;BME280;6136;47.032;15.398;2023-03-03T09:14:16;97679.13;;;11.16;86.91
12146;BME280;6136;47.032;15.398;2023-03-03T09:16:49;97681.38;;;13.32;73.65
12146;BME280;6136;47.032;15.398;2023-03-03T09:19:26;97670.75;;;15.08;66.57
12146;BME280;6136;47.032;15.398;2023-03-03T09:21:57;97670.53;;;15.99;58.42
12146;BME280;6136;47.032;15.398;2023-03-03T09:24:29;97661.97;;;15.51;58.09
12146;BME280;6136;47.032;15.398;2023-03-03T09:26:58;97659.81;;;17.14;52.73
12146;BME280;6136;47.032;15.398;2023-03-03T09:29:27;97665.22;;;18.23;48.83
12146;BME280;6136;47.032;15.398;2023-03-03T09:31:57;97663.09;;;17.58;49.18
12146;BME280;6136;47.032;15.398;2023-03-03T09:34:37;97666.06;;;19.28;45.42
12146;BME280;6136;47.032;15.398;2023-03-03T09:37:19;97662.88;;;19.15;46.46
12146;BME280;6136;47.032;15.398;2023-03-03T09:39:50;97664.91;;;19.95;44.19
12146;BME280;6136;47.032;15.398;2023-03-03T09:42:40;97664.94;;;19.67;43.92
12146;BME280;6136;47.032;15.398;2023-03-03T09:45:43;97658.78;;;19.85;43.29
12146;BME280;6136;47.032;15.398;2023-03-03T09:48:37;97660.25;;;20.85;40.36
12146;BME280;6136;47.032;15.398;2023-03-03T09:51:23;97654.41;;;22.66;36.53
12146;BME280;6136;47.032;15.398;2023-03-03T09:54:11;97663.06;;;21.02;38.80
12146;BME280;6136;47.032;15.398;2023-03-03T09:56:46;97660.97;;;20.70;39.89
12146;BME280;6136;47.032;15.398;2023-03-03T09:59:29;97656.97;;;22.76;34.83
12146;BME280;6136;47.032;15.398;2023-03-03T10:02:25;97655.22;;;21.76;36.62
12146;BME280;6136;47.032;15.398;2023-03-03T10:05:08;97656.91;;;21.77;36.12
12146;BME280;6136;47.032;15.398;2023-03-03T10:07:49;97656.41;;;22.40;35.30
12146;BME280;6136;47.032;15.398;2023-03-03T10:10:38;97655.53;;;21.73;34.57
12146;BME280;6136;47.032;15.398;2023-03-03T10:13:24;97646.44;;;22.32;34.23
12146;BME280;6136;47.032;15.398;2023-03-03T10:16:09;97646.97;;;22.36;33.94
12146;BME280;6136;47.032;15.398;2023-03-03T10:18:47;97648.28;;;22.32;35.50
12146;BME280;6136;47.032;15.398;2023-03-03T10:21:23;97648.41;;;21.64;36.76
12146;BME280;6136;47.032;15.398;2023-03-03T10:23:55;97646.81;;;22.94;33.61
12146;BME280;6136;47.032;15.398;2023-03-03T10:26:50;97642.91;;;23.05;33.85
12146;BME280;6136;47.032;15.398;2023-03-03T10:29:43;97639.19;;;23.14;34.37
12146;BME280;6136;47.032;15.398;2023-03-03T10:32:40;97641.25;;;24.37;31.04
12146;BME280;6136;47.032;15.398;2023-03-03T10:35:22;97628.84;;;23.81;32.72
12146;BME280;6136;47.032;15.398;2023-03-03T10:38:07;97629.00;;;24.10;31.76
12146;BME280;6136;47.032;15.398;2023-03-03T10:40:46;97615.94;;;24.67;31.22
12146;BME280;6136;47.032;15.398;2023-03-03T10:43:32;97622.25;;;26.15;28.35
12146;BME280;6136;47.032;15.398;2023-03-03T10:46:26;97619.47;;;24.68;31.16
12146;BME280;6136;47.032;15.398;2023-03-03T10:49:31;97614.81;;;24.08;30.67
12146;BME280;6136;47.032;15.398;2023-03-03T10:52:17;97613.78;;;23.39;32.09
12146;BME280;6136;47.032;15.398;2023-03-03T10:54:58;97613.94;;;23.85;31.53
12146;BME280;6136;47.032;15.398;2023-03-03T10:57:37;97604.88;;;24.69;29.85
12146;BME280;6136;47.032;15.398;2023-03-03T11:00:20;97613.88;;;21.67;34.56
12146;BME280;6136;47.032;15.398;2023-03-03T11:03:13;97607.22;;;23.26;32.65
12146;BME280;6136;47.032;15.398;2023-03-03T11:05:50;97608.66;;;22.65;33.79
12146;BME280;6136;47.032;15.398;2023-03-03T11:08:26;97615.56;;;24.93;29.69
12146;BME280;6136;47.032;15.398;2023-03-03T11:11:04;97604.16;;;24.75;29.71
12146;BME280;6136;47.032;15.398;2023-03-03T11:13:41;97602.72;;;23.10;32.39
12146;BME280;6136;47.032;15.398;2023-03-03T11:16:29;97604.78;;;22.67;32.82
12146;BME280;6136;47.032;15.398;2023-03-03T11:19:10;97609.03;;;21.71;33.54
12146;BME280;6136;47.032;15.398;2023-03-03T11:21:44;97598.84;;;22.07;33.61
12146;BME280;6136;47.032;15.398;2023-03-03T11:24:32;97591.88;;;21.38;33.50
12146;BME280;6136;47.032;15.398;2023-03-03T11:27:13;97592.19;;;21.09;34.18
12146;BME280;6136;47.032;15.398;2023-03-03T11:29:54;97591.31;;;21.77;34.16
12146;BME280;6136;47.032;15.398;2023-03-03T11:32:34;97591.81;;;21.80;34.00
12146;BME280;6136;47.032;15.398;2023-03-03T11:35:19;97589.75;;;23.44;32.07
12146;BME280;6136;47.032;15.398;2023-03-03T11:37:56;97584.69;;;21.55;33.95
12146;BME280;6136;47.032;15.398;2023-03-03T11:40:31;97583.44;;;21.07;34.76
12146;BME280;6136;47.032;15.398;2023-03-03T11:43:07;97587.44;;;19.81;35.99
12146;BME280;6136;47.032;15.398;2023-03-03T11:45:47;97589.28;;;17.34;41.63
12146;BME280;6136;47.032;15.398;2023-03-03T11:48:21;97601.03;;;15.99;47.76
12146;BME280;6136;47.032;15.398;2023-03-03T11:50:57;97590.31;;;15.02;51.77
12146;BME280;6136;47.032;15.398;2023-03-03T11:56:34;97581.16;;;13.91;55.90
12146;BME280;6136;47.032;15.398;2023-03-03T11:59:18;97572.97;;;13.71;56.65
12146;BME280;6136;47.032;15.398;2023-03-03T12:01:52;97571.72;;;13.27;60.04
12146;BME280;6136;47.032;15.398;2023-03-03T12:04:26;97565.13;;;13.56;57.05
12146;BME280;6136;47.032;15.398;2023-03-03T12:07:08;97570.09;;;13.85;55.94
12146;BME280;6136;47.032;15.398;2023-03-03T12:09:54;97571.47;;;13.67;57.78
12146;BME280;6136;47.032;15.398;2023-03-03T12:12:29;97564.59;;;13.28;60.08
12146;BME280;6136;47.032;15.398;2023-03-03T12:15:06;97564.97;;;13.47;56.85
12146;BME280;6136;47.032;15.398;2023-03-03T12:17:54;97562.47;;;12.83;59.80
12146;BME280;6136;47.032;15.398;2023-03-03T12:20:28;97550.56;;;13.73;58.53
12146;BME280;6136;47.032;15.398;2023-03-03T12:23:10;97561.56;;;14.72;55.46
12146;BME280;6136;47.032;15.398;2023-03-03T12:25:41;97549.81;;;15.51;52.43
12146;BME280;6136;47.032;15.398;2023-03-03T12:28:15;97561.59;;;15.48;51.84
12146;BME280;6136;47.032;15.398;2023-03-03T12:31:05;97551.88;;;16.32;50.22
12146;BME280;6136;47.032;15.398;2023-03-03T12:33:50;97558.19;;;15.46;52.58
12146;BME280;6136;47.032;15.398;2023-03-03T12:36:58;97553.63;;;16.94;49.41
12146;BME280;6136;47.032;15.398;2023-03-03T12:39:47;97549.81;;;17.36;46.99
12146;BME280;6136;47.032;15.398;2023-03-03T12:42:27;97541.28;;;17.12;46.51
12146;BME280;6136;47.032;15.398;2023-03-03T12:45:06;97547.88;;;16.68;47.18
12146;BME280;6136;47.032;15.398;2023-03-03T12:47:45;97534.03;;;17.43;46.40
12146;BME280;6136;47.032;15.398;2023-03-03T12:50:29;97535.16;;;16.60;47.28
12146;BME280;6136;47.032;15.398;2023-03-03T12:53:11;97528.44;;;18.13;43.00
12146;BME280;6136;47.032;15.398;2023-03-03T12:55:49;97532.56;;;17.98;43.19
12146;BME280;6136;47.032;15.398;2023-03-03T12:58:28;97529.59;;;17.82;43.67
12146;BME280;6136;47.032;15.398;2023-03-03T13:01:12;97532.66;;;18.26;43.05
12146;BME280;6136;47.032;15.398;2023-03-03T13:03:48;97528.59;;;19.32;40.28
12146;BME280;6136;47.032;15.398;2023-03-03T13:06:27;97528.78;;;20.89;36.62
12146;BME280;6136;47.032;15.398;2023-03-03T13:09:08;97524.84;;;20.49;36.58
12146;BME280;6136;47.032;15.398;2023-03-03T13:11:48;97537.69;;;18.67;40.64
12146;BME280;6136;47.032;15.398;2023-03-03T13:14:28;97529.19;;;19.54;39.63
12146;BME280;6136;47.032;15.398;2023-03-03T13:17:06;97525.84;;;20.31;39.20
12146;BME280;6136;47.032;15.398;2023-03-03T13:19:40;97516.84;;;21.25;36.13
12146;BME280;6136;47.032;15.398;2023-03-03T13:22:15;97513.81;;;23.15;33.76
12146;BME280;6136;47.032;15.398;2023-03-03T13:24:54;97508.25;;;21.96;35.41
12146;BME280;6136;47.032;15.398;2023-03-03T13:27:30;97511.63;;;20.38;36.96
12146;BME280;6136;47.032;15.398;2023-03-03T13:30:03;97527.69;;;18.40;40.19
12146;BME280;6136;47.032;15.398;2023-03-03T13:32:41;97544.16;;;16.59;44.24
12146;BME280;6136;47.032;15.398;2023-03-03T13:35:19;97537.97;;;15.22;48.05
12146;BME280;6136;47.032;15.398;2023-03-03T13:37:56;97531.38;;;14.83;49.24